createdAt,value
2018-01-03T00:02:03.364Z,93.2
2018-01-03T00:07:03.648Z,93.4
2018-01-03T00:12:03.715Z,93.2
2018-01-03T00:17:03.845Z,93.2
2018-01-03T00:22:03.304Z,93.3
2018-01-03T00:27:03.170Z,93.4
2018-01-03T00:32:03.121Z,93.6
2018-01-03T00:37:03.609Z,93.7
2018-01-03T00:42:03.380Z,93.8
2018-01-03T00:47:03.447Z,93.8
2018-01-03T00:52:03.141Z,93.8
2018-01-03T00:57:03.423Z,93.9
2018-01-03T01:02:03.045Z,94.3
2018-01-03T01:07:03.701Z,94.0
2018-01-03T01:12:03.730Z,93.9
2018-01-03T01:17:03.741Z,94.2
2018-01-03T01:22:03.888Z,94.4
2018-01-03T01:27:04.012Z,94.2
2018-01-03T01:32:03.566Z,94.3
2018-01-03T01:37:03.542Z,94.4
2018-01-03T01:42:03.197Z,94.4
2018-01-03T01:47:03.096Z,94.3
2018-01-03T01:52:03.110Z,94.4
2018-01-03T01:57:03.011Z,94.3
2018-01-03T02:02:03.104Z,94.4
2018-01-03T02:07:03.469Z,94.6
2018-01-03T02:12:03.616Z,94.6
2018-01-03T02:17:03.553Z,94.5
2018-01-03T02:22:03.122Z,94.6
2018-01-03T02:27:03.912Z,94.7
2018-01-03T02:32:03.416Z,94.9
2018-01-03T02:37:03.262Z,94.9
2018-01-03T02:42:03.881Z,95.0
2018-01-03T02:47:03.283Z,95.0
2018-01-03T02:52:03.277Z,95.3
2018-01-03T02:57:03.183Z,95.2
2018-01-03T03:02:03.200Z,95.3
2018-01-03T03:07:03.530Z,95.8
2018-01-03T03:12:03.398Z,96.0
2018-01-03T03:17:03.748Z,96.0
2018-01-03T03:22:03.561Z,96.1
2018-01-03T03:27:03.706Z,96.0
2018-01-03T03:32:03.167Z,96.3
2018-01-03T03:37:03.462Z,97.0
2018-01-03T03:42:03.458Z,97.7
2018-01-03T03:47:03.153Z,97.6
2018-01-03T03:52:03.271Z,97.6
2018-01-03T03:57:03.805Z,97.6
2018-01-03T04:02:04.014Z,98.2
2018-01-03T04:07:03.232Z,98.1
2018-01-03T04:12:03.528Z,98.6
2018-01-03T04:17:03.820Z,98.6
2018-01-03T04:22:03.945Z,98.6
2018-01-03T04:27:03.216Z,99.0
2018-01-03T04:32:03.701Z,99.2
2018-01-03T04:37:03.512Z,99.4
2018-01-03T04:42:03.642Z,99.9
2018-01-03T04:47:03.875Z,99.9
2018-01-03T04:52:02.992Z,99.9
2018-01-03T04:57:03.580Z,99.9
2018-01-03T05:02:03.856Z,99.9
2018-01-03T05:07:03.275Z,99.9
2018-01-03T05:12:03.598Z,99.9
2018-01-03T05:17:03.761Z,99.9
2018-01-03T05:22:03.457Z,99.9
2018-01-03T05:27:03.590Z,99.9
2018-01-03T05:32:03.678Z,99.9
2018-01-03T05:37:03.847Z,99.9
2018-01-03T05:42:02.989Z,99.9
2018-01-03T05:47:03.269Z,99.9
2018-01-03T05:52:03.822Z,99.9
2018-01-03T05:57:03.880Z,99.9
2018-01-03T06:02:03.091Z,99.9
2018-01-03T06:07:03.724Z,99.9
2018-01-03T06:12:03.971Z,99.9
2018-01-03T06:17:03.628Z,99.9
2018-01-03T06:22:03.632Z,99.9
2018-01-03T06:27:03.927Z,99.9
2018-01-03T06:32:03.332Z,99.9
2018-01-03T06:37:03.396Z,99.9
2018-01-03T06:42:03.718Z,99.9
2018-01-03T06:47:10.387Z,99.9
2018-01-03T06:52:03.500Z,99.9
2018-01-03T06:57:03.871Z,99.9
2018-01-03T07:02:14.611Z,99.9
2018-01-03T07:07:03.969Z,99.9
2018-01-03T07:12:03.762Z,99.9
2018-01-03T07:17:28.549Z,99.9
2018-01-03T07:22:03.909Z,99.9
2018-01-03T07:27:03.301Z,99.9
2018-01-03T07:32:24.488Z,99.9
2018-01-03T07:37:04.100Z,99.9
2018-01-03T07:42:03.913Z,99.9
2018-01-03T07:47:21.136Z,99.9
2018-01-03T07:52:03.121Z,99.9
2018-01-03T07:57:03.594Z,99.9
2018-01-03T08:02:25.537Z,99.9
2018-01-03T08:07:04.046Z,99.9
2018-01-03T08:12:03.882Z,99.9
2018-01-03T08:17:24.562Z,99.9
2018-01-03T08:22:03.427Z,99.9
2018-01-03T08:27:03.617Z,99.9
2018-01-03T08:32:21.869Z,99.9
2018-01-03T08:37:03.288Z,99.9
2018-01-03T08:42:03.759Z,99.9
2018-01-03T08:47:24.669Z,99.9
2018-01-03T08:52:03.223Z,99.9
2018-01-03T08:57:03.849Z,99.9
2018-01-03T09:02:20.688Z,99.9
2018-01-03T09:07:03.352Z,99.9
2018-01-03T09:12:03.110Z,99.9
2018-01-03T09:17:22.040Z,99.9
2018-01-03T09:22:03.557Z,99.9
2018-01-03T09:27:03.216Z,99.9
2018-01-03T09:32:21.656Z,99.9
2018-01-03T09:37:03.157Z,99.9
2018-01-03T09:42:03.527Z,99.9
2018-01-03T09:47:19.103Z,99.9
2018-01-03T09:52:03.034Z,99.9
2018-01-03T09:57:03.617Z,99.9
2018-01-03T10:02:20.993Z,99.9
2018-01-03T10:07:03.240Z,99.9
2018-01-03T10:12:04.060Z,99.9
2018-01-03T10:17:22.468Z,99.9
2018-01-03T10:22:03.501Z,99.9
2018-01-03T10:27:03.303Z,99.9
2018-01-03T10:32:27.953Z,99.9
2018-01-03T10:37:03.756Z,99.9
2018-01-03T10:42:03.286Z,99.9
2018-01-03T10:47:23.131Z,99.9
2018-01-03T10:52:03.071Z,99.9
2018-01-03T10:57:03.318Z,99.9
2018-01-03T11:02:21.570Z,99.9
2018-01-03T11:07:03.200Z,99.9
2018-01-03T11:12:03.117Z,99.9
2018-01-03T11:17:28.665Z,99.9
2018-01-03T11:22:03.471Z,99.9
2018-01-03T11:27:03.290Z,99.9
2018-01-03T11:32:24.201Z,99.9
2018-01-03T11:37:03.533Z,99.9
2018-01-03T11:42:03.161Z,99.9
2018-01-03T11:47:24.574Z,99.9
2018-01-03T11:52:03.655Z,99.9
2018-01-03T11:57:03.514Z,99.9
2018-01-03T12:02:24.313Z,99.9
2018-01-03T12:07:03.314Z,99.9
2018-01-03T12:12:03.277Z,99.9
2018-01-03T12:17:23.769Z,99.9
2018-01-03T12:22:03.253Z,99.9
2018-01-03T12:27:03.951Z,99.9
2018-01-03T12:32:22.098Z,99.9
2018-01-03T12:37:03.473Z,99.9
2018-01-03T12:42:03.219Z,99.9
2018-01-03T12:47:27.482Z,99.9
2018-01-03T12:52:03.755Z,99.9
2018-01-03T12:57:03.670Z,99.9
2018-01-03T13:02:25.933Z,99.9
2018-01-03T13:07:03.675Z,99.9
2018-01-03T13:12:03.237Z,99.9
2018-01-03T13:17:21.917Z,99.9
2018-01-03T13:22:03.426Z,99.9
2018-01-03T13:27:03.264Z,99.9
2018-01-03T13:32:24.516Z,99.9
2018-01-03T13:37:03.592Z,99.9
2018-01-03T13:42:03.678Z,99.9
2018-01-03T13:47:26.057Z,99.9
2018-01-03T13:52:03.008Z,99.9
2018-01-03T13:57:03.973Z,99.9
2018-01-03T14:02:18.730Z,99.9
2018-01-03T14:07:03.394Z,99.9
2018-01-03T14:12:03.452Z,99.9
2018-01-03T14:17:27.855Z,99.9
2018-01-03T14:22:03.318Z,99.9
2018-01-03T14:27:04.023Z,99.9
2018-01-03T14:32:16.137Z,99.9
2018-01-03T14:37:03.313Z,99.9
2018-01-03T14:42:03.199Z,99.9
2018-01-03T14:47:27.549Z,99.9
2018-01-03T14:52:03.100Z,99.9
2018-01-03T14:57:03.101Z,99.9
2018-01-03T15:02:26.866Z,99.9
2018-01-03T15:07:03.386Z,99.9
2018-01-03T15:12:03.707Z,99.9
2018-01-03T15:17:26.097Z,99.9
2018-01-03T15:22:03.199Z,99.9
2018-01-03T15:27:05.912Z,99.9
2018-01-03T15:32:25.132Z,99.9
2018-01-03T15:37:03.692Z,99.9
2018-01-03T15:42:02.973Z,99.9
2018-01-03T15:47:34.489Z,99.9
2018-01-03T15:52:03.287Z,99.9
2018-01-03T15:57:03.082Z,99.9
2018-01-03T16:02:33.349Z,99.9
2018-01-03T16:07:03.309Z,99.9
2018-01-03T16:12:03.513Z,99.9
2018-01-03T16:17:10.857Z,99.9
2018-01-03T16:22:03.748Z,99.9
2018-01-03T16:27:03.229Z,99.9
2018-01-03T16:32:03.997Z,99.9
2018-01-03T16:37:03.237Z,99.9
2018-01-03T16:42:03.768Z,99.9
2018-01-03T16:47:03.863Z,99.9
2018-01-03T16:52:03.900Z,99.9
2018-01-03T16:57:02.962Z,99.9
2018-01-03T17:02:03.340Z,99.9
2018-01-03T17:07:03.535Z,99.9
2018-01-03T17:12:03.827Z,99.9
2018-01-03T17:17:04.063Z,99.9
2018-01-03T17:22:03.317Z,99.9
2018-01-03T17:27:03.380Z,99.9
2018-01-03T17:32:11.194Z,99.9
2018-01-03T17:37:03.931Z,99.9
2018-01-03T17:42:03.442Z,99.9
2018-01-03T17:47:04.395Z,99.9
2018-01-03T17:52:03.222Z,99.9
2018-01-03T17:57:03.521Z,99.9
2018-01-03T18:02:04.317Z,99.9
2018-01-03T18:07:03.663Z,99.9
2018-01-03T18:12:03.975Z,99.9
2018-01-03T18:17:04.020Z,99.9
2018-01-03T18:22:03.512Z,99.9
2018-01-03T18:27:03.417Z,99.9
2018-01-03T18:32:03.174Z,99.9
2018-01-03T18:37:03.502Z,99.9
2018-01-03T18:42:03.447Z,99.9
2018-01-03T18:47:05.897Z,99.9
2018-01-03T18:52:03.874Z,99.9
2018-01-03T18:57:03.870Z,99.9
2018-01-03T19:02:03.127Z,99.9
2018-01-03T19:07:03.473Z,99.9
2018-01-03T19:12:03.795Z,99.9
2018-01-03T19:17:04.122Z,99.9
2018-01-03T19:22:04.007Z,99.9
2018-01-03T19:27:03.273Z,99.9
2018-01-03T19:32:03.557Z,99.9
2018-01-03T19:37:03.798Z,99.9
2018-01-03T19:42:03.973Z,99.9
2018-01-03T19:47:03.394Z,99.9
2018-01-03T19:52:03.482Z,99.9
2018-01-03T19:57:03.733Z,99.9
2018-01-03T20:02:03.484Z,99.9
2018-01-03T20:07:03.817Z,99.9
2018-01-03T20:12:03.695Z,99.9
2018-01-03T20:17:03.867Z,99.9
2018-01-03T20:22:03.280Z,99.9
2018-01-03T20:27:03.626Z,99.9
2018-01-03T20:32:03.802Z,99.9
2018-01-03T20:37:04.017Z,99.9
2018-01-03T20:42:03.327Z,99.9
2018-01-03T20:47:03.446Z,99.9
2018-01-03T20:52:03.566Z,99.9
2018-01-03T20:57:03.852Z,99.9
2018-01-03T21:02:03.867Z,99.9
2018-01-03T21:07:03.458Z,99.9
2018-01-03T21:12:03.641Z,99.9
2018-01-03T21:17:03.675Z,99.9
2018-01-03T21:22:03.810Z,99.9
2018-01-03T21:27:04.097Z,99.9
2018-01-03T21:32:04.171Z,99.9
2018-01-03T21:37:03.213Z,99.9
2018-01-03T21:42:03.436Z,99.9
2018-01-03T21:47:03.659Z,99.9
2018-01-03T21:52:03.640Z,99.9
2018-01-03T21:57:03.734Z,99.9
2018-01-03T22:02:03.705Z,99.9
2018-01-03T22:07:03.880Z,99.9
2018-01-03T22:12:03.152Z,99.9
2018-01-03T22:17:03.465Z,99.9
2018-01-03T22:22:03.733Z,99.9
2018-01-03T22:27:03.861Z,99.9
2018-01-03T22:32:04.302Z,99.9
2018-01-03T22:37:03.117Z,99.9
2018-01-03T22:42:03.472Z,99.9
2018-01-03T22:47:04.056Z,99.9
2018-01-03T22:52:03.565Z,99.9
2018-01-03T22:57:03.791Z,99.9
2018-01-03T23:02:03.734Z,99.9
2018-01-03T23:07:03.633Z,99.9
2018-01-03T23:12:03.586Z,99.9
2018-01-03T23:22:03.993Z,99.9
2018-01-03T23:27:03.527Z,99.9
2018-01-03T23:32:04.117Z,99.9
2018-01-03T23:37:03.623Z,99.9
2018-01-03T23:42:03.662Z,99.9
2018-01-03T23:47:03.778Z,99.9
2018-01-03T23:52:03.239Z,99.9
2018-01-03T23:57:03.360Z,99.9
